createdAt,value
2023-08-23T00:03:19.459Z,31.60
2023-08-23T00:08:23.702Z,31.60
2023-08-23T00:13:27.941Z,31.60
2023-08-23T00:18:30.848Z,31.50
2023-08-23T00:23:33.753Z,31.60
2023-08-23T00:28:37.981Z,31.50
2023-08-23T00:33:40.895Z,31.50
2023-08-23T00:38:43.813Z,31.50
2023-08-23T00:43:49.343Z,31.50
2023-08-23T00:48:52.349Z,31.50
2023-08-23T00:53:55.223Z,31.50
2023-08-23T00:59:00.105Z,31.60
2023-08-23T01:04:03.039Z,31.50
2023-08-23T01:09:15.213Z,31.40
2023-08-23T01:14:25.193Z,31.40
2023-08-23T01:19:39.857Z,31.50
2023-08-23T01:24:44.295Z,31.50
2023-08-23T01:29:47.390Z,31.40
2023-08-23T01:34:53.883Z,31.40
2023-08-23T01:40:01.644Z,31.50
2023-08-23T01:45:05.402Z,31.40
2023-08-23T01:50:09.080Z,31.40
2023-08-23T01:55:13.279Z,31.50
2023-08-23T02:00:16.615Z,31.40
2023-08-23T02:05:19.542Z,31.40
2023-08-23T02:10:26.517Z,31.40
2023-08-23T02:15:29.643Z,31.20
2023-08-23T02:20:32.631Z,31.30
2023-08-23T02:25:36.912Z,31.30
2023-08-23T02:30:40.139Z,31.30
2023-08-23T02:35:45.361Z,31.40
2023-08-23T02:40:49.551Z,31.20
2023-08-23T02:45:52.484Z,31.30
2023-08-23T02:50:55.357Z,31.30
2023-08-23T02:55:59.535Z,31.20
2023-08-23T03:01:04.110Z,31.30
2023-08-23T03:06:09.545Z,31.30
2023-08-23T03:11:13.877Z,31.30
2023-08-23T03:16:16.767Z,31.20
2023-08-23T03:21:19.707Z,31.20
2023-08-23T03:26:23.936Z,31.20
2023-08-23T03:31:29.372Z,31.20
2023-08-23T03:36:32.984Z,31.20
2023-08-23T03:41:37.269Z,31.10
2023-08-23T03:46:40.618Z,31.10
2023-08-23T03:51:43.484Z,31.20
2023-08-23T03:56:47.689Z,31.20
2023-08-23T04:01:50.614Z,31.10
2023-08-23T04:06:53.489Z,31.10
2023-08-23T04:11:57.694Z,31.10
2023-08-23T04:17:01.548Z,31.10
2023-08-23T04:22:04.580Z,31.10
2023-08-23T04:27:08.785Z,31.00
2023-08-23T04:32:14.071Z,31.10
2023-08-23T04:37:17.146Z,31.10
2023-08-23T04:42:21.382Z,31.10
2023-08-23T04:47:24.586Z,31.00
2023-08-23T04:52:27.543Z,31.00
2023-08-23T04:57:34.490Z,31.10
2023-08-23T05:02:37.376Z,31.00
2023-08-23T05:07:40.245Z,31.10
2023-08-23T05:12:44.437Z,31.00
2023-08-23T05:17:47.467Z,31.00
2023-08-23T05:22:50.558Z,31.00
2023-08-23T05:27:54.763Z,31.00
2023-08-23T05:32:57.923Z,30.90
2023-08-23T05:38:00.911Z,31.00
2023-08-23T05:43:05.425Z,30.90
2023-08-23T05:48:08.744Z,31.00
2023-08-23T05:53:15.751Z,31.00
2023-08-23T05:58:20.481Z,31.00
2023-08-23T06:03:23.417Z,30.90
2023-08-23T06:08:27.391Z,31.00
2023-08-23T06:13:32.082Z,30.90
2023-08-23T06:18:34.988Z,30.90
2023-08-23T06:23:42.899Z,30.90
2023-08-23T06:28:47.216Z,30.80
2023-08-23T06:33:50.196Z,30.90
2023-08-23T06:38:53.077Z,30.90
2023-08-23T06:44:02.210Z,30.90
2023-08-23T06:49:05.614Z,30.80
2023-08-23T06:54:08.500Z,30.90
2023-08-23T06:59:12.808Z,30.80
2023-08-23T07:04:16.479Z,30.90
2023-08-23T07:09:20.900Z,30.80
2023-08-23T07:14:26.230Z,30.80
2023-08-23T07:19:29.073Z,30.90
2023-08-23T07:24:32.618Z,30.70
2023-08-23T07:29:38.408Z,30.80
2023-08-23T07:34:41.511Z,30.80
2023-08-23T07:39:44.352Z,30.90
2023-08-23T07:44:48.558Z,30.90
2023-08-23T07:49:52.868Z,30.80
2023-08-23T07:54:55.808Z,30.80
2023-08-23T08:00:01.137Z,30.90
2023-08-23T08:05:04.595Z,30.90
2023-08-23T08:10:08.371Z,30.90
2023-08-23T08:15:12.997Z,30.80
2023-08-23T08:20:16.017Z,30.80
2023-08-23T08:25:19.021Z,30.80
2023-08-23T08:30:23.286Z,30.80
2023-08-23T08:35:26.328Z,30.80
2023-08-23T08:40:29.291Z,30.80
2023-08-23T08:45:33.735Z,30.80
2023-08-23T08:50:36.715Z,30.90
2023-08-23T08:55:39.754Z,30.80
2023-08-23T09:00:46.413Z,30.80
2023-08-23T09:05:50.308Z,30.90
2023-08-23T09:10:53.221Z,30.80
2023-08-23T09:16:00.040Z,30.90
2023-08-23T09:21:03.175Z,30.90
2023-08-23T09:26:07.454Z,30.90
2023-08-23T09:31:12.722Z,30.90
2023-08-23T09:36:26.691Z,30.80
2023-08-23T09:41:29.684Z,30.80
2023-08-23T09:46:36.240Z,30.90
2023-08-23T09:51:53.166Z,30.90
2023-08-23T09:56:56.593Z,30.90
2023-08-23T10:02:02.106Z,30.90
2023-08-23T10:07:06.496Z,30.90
2023-08-23T10:12:10.975Z,30.90
2023-08-23T10:17:17.499Z,30.80
2023-08-23T10:22:20.857Z,30.90
2023-08-23T10:27:25.643Z,30.90
2023-08-23T10:32:36.299Z,30.90
2023-08-23T10:37:39.232Z,30.90
2023-08-23T10:42:42.602Z,31.00
2023-08-23T10:47:52.749Z,31.00
2023-08-23T10:52:55.851Z,30.90
2023-08-23T10:57:58.800Z,30.90
2023-08-23T11:03:03.869Z,30.90
2023-08-23T11:08:07.910Z,30.90
2023-08-23T11:13:10.841Z,30.90
2023-08-23T11:18:15.496Z,31.00
2023-08-23T11:23:18.469Z,30.90
2023-08-23T11:28:22.196Z,30.90
2023-08-23T11:33:26.850Z,30.90
2023-08-23T11:38:30.037Z,30.90
2023-08-23T11:43:32.975Z,31.00
2023-08-23T11:48:37.172Z,31.00
2023-08-23T11:53:50.315Z,30.90
2023-08-23T11:58:53.225Z,30.90
2023-08-23T12:03:57.852Z,31.00
2023-08-23T12:09:01.129Z,31.00
2023-08-23T12:14:08.041Z,31.00
2023-08-23T12:19:29.638Z,31.00
2023-08-23T12:24:34.585Z,31.00
2023-08-23T12:29:39.108Z,31.00
2023-08-23T12:34:43.360Z,31.00
2023-08-23T12:39:46.284Z,31.10
2023-08-23T12:44:49.184Z,31.00
2023-08-23T12:49:53.398Z,31.00
2023-08-23T12:54:56.383Z,31.10
2023-08-23T12:59:59.419Z,31.10
2023-08-23T13:05:04.139Z,31.00
2023-08-23T13:10:08.368Z,31.10
2023-08-23T13:15:12.005Z,31.10
2023-08-23T13:20:16.408Z,31.10
2023-08-23T13:25:19.322Z,31.10
2023-08-23T13:30:22.267Z,31.10
2023-08-23T13:35:26.627Z,31.10
2023-08-23T13:40:29.555Z,31.10
2023-08-23T13:45:32.429Z,31.10
2023-08-23T13:50:36.631Z,31.10
2023-08-23T13:55:39.517Z,31.20
2023-08-23T14:00:42.388Z,31.10
2023-08-23T14:05:47.174Z,31.20
2023-08-23T14:10:50.023Z,31.20
2023-08-23T14:15:54.561Z,31.20
2023-08-23T14:20:58.774Z,31.10
2023-08-23T14:26:04.921Z,31.20
2023-08-23T14:31:08.206Z,31.10
2023-08-23T14:36:12.473Z,31.20
2023-08-23T14:41:15.424Z,31.20
2023-08-23T14:46:18.312Z,31.30
2023-08-23T14:51:23.727Z,31.20
2023-08-23T14:56:26.681Z,31.30
2023-08-23T15:01:29.653Z,31.30
2023-08-23T15:06:33.888Z,31.40
2023-08-23T15:11:36.721Z,31.40
2023-08-23T15:16:39.645Z,31.40
2023-08-23T15:21:43.850Z,31.40
2023-08-23T15:26:46.754Z,31.40
2023-08-23T15:31:49.718Z,31.50
2023-08-23T15:36:53.976Z,31.50
2023-08-23T15:41:58.274Z,31.40
2023-08-23T15:47:03.047Z,31.60
2023-08-23T15:52:08.533Z,31.60
2023-08-23T15:57:11.482Z,31.60
2023-08-23T16:02:14.446Z,31.60
2023-08-23T16:07:19.679Z,31.60
2023-08-23T16:12:22.557Z,31.60
2023-08-23T16:17:25.426Z,31.60
2023-08-23T16:22:29.943Z,31.70
2023-08-23T16:27:32.824Z,31.70
2023-08-23T16:32:35.893Z,31.70
2023-08-23T16:37:42.325Z,31.70
2023-08-23T16:42:45.250Z,31.70
2023-08-23T16:47:48.613Z,31.70
2023-08-23T16:52:52.803Z,31.70
2023-08-23T16:57:55.991Z,31.70
2023-08-23T17:02:58.874Z,31.80
2023-08-23T17:08:04.214Z,31.80
2023-08-23T17:13:07.179Z,31.70
2023-08-23T17:18:10.560Z,31.80
2023-08-23T17:23:18.190Z,31.80
2023-08-23T17:28:21.242Z,31.90
2023-08-23T17:33:24.140Z,31.80
2023-08-23T17:38:28.388Z,31.80
2023-08-23T17:43:31.240Z,31.80
2023-08-23T17:48:34.164Z,31.80
2023-08-23T17:53:38.396Z,31.90
2023-08-23T17:58:41.254Z,31.90
2023-08-23T18:03:44.525Z,31.90
2023-08-23T18:08:48.825Z,31.80
2023-08-23T18:13:52.430Z,31.90
2023-08-23T18:18:55.457Z,31.90
2023-08-23T18:23:59.931Z,31.80
2023-08-23T18:29:02.908Z,31.90
2023-08-23T18:34:05.789Z,31.90
2023-08-23T18:39:10.037Z,31.90
2023-08-23T18:44:12.954Z,31.90
2023-08-23T18:49:16.008Z,31.80
2023-08-23T18:54:20.225Z,31.90
2023-08-23T18:59:23.444Z,31.90
2023-08-23T19:04:26.279Z,31.90
2023-08-23T19:09:30.558Z,31.80
2023-08-23T19:14:34.013Z,31.90
2023-08-23T19:19:36.854Z,31.90
2023-08-23T19:24:41.068Z,31.90
2023-08-23T19:29:44.074Z,31.90
2023-08-23T19:34:47.029Z,31.80
2023-08-23T19:39:51.427Z,31.90
2023-08-23T19:44:54.271Z,31.90
2023-08-23T19:49:59.823Z,31.90
2023-08-23T19:55:04.102Z,31.90
2023-08-23T20:00:08.310Z,31.90
2023-08-23T20:05:13.634Z,31.90
2023-08-23T20:10:19.317Z,31.90
2023-08-23T20:15:22.314Z,31.90
2023-08-23T20:20:25.148Z,31.90
2023-08-23T20:25:29.991Z,31.90
2023-08-23T20:30:32.894Z,31.90
2023-08-23T20:35:36.239Z,31.90
2023-08-23T20:40:40.968Z,31.90
2023-08-23T20:45:44.318Z,31.90
2023-08-23T20:50:47.194Z,31.90
2023-08-23T20:55:52.358Z,31.90
2023-08-23T21:00:57.807Z,31.90
2023-08-23T21:06:00.810Z,31.80
2023-08-23T21:11:05.045Z,31.80
2023-08-23T21:16:08.957Z,31.80
2023-08-23T21:21:11.927Z,31.90
2023-08-23T21:26:16.146Z,31.80
2023-08-23T21:31:19.622Z,31.90
2023-08-23T21:36:22.760Z,31.80
2023-08-23T21:41:27.040Z,31.90
2023-08-23T21:46:31.437Z,31.80
2023-08-23T21:51:34.312Z,31.90
2023-08-23T21:56:41.132Z,31.80
2023-08-23T22:01:44.241Z,31.80
2023-08-23T22:06:48.257Z,31.90
2023-08-23T22:11:53.120Z,31.80
2023-08-23T22:16:56.172Z,31.90
2023-08-23T22:21:59.215Z,31.80
2023-08-23T22:27:03.459Z,31.80
2023-08-23T22:32:06.681Z,31.90
2023-08-23T22:37:09.560Z,31.80
2023-08-23T22:42:13.834Z,31.80
2023-08-23T22:47:16.754Z,31.90
2023-08-23T22:52:19.878Z,31.90
2023-08-23T22:57:24.289Z,31.90
2023-08-23T23:02:27.423Z,31.80
2023-08-23T23:07:30.934Z,31.80
2023-08-23T23:12:36.036Z,31.90
2023-08-23T23:17:40.615Z,31.80
2023-08-23T23:22:43.628Z,31.80
2023-08-23T23:27:48.074Z,31.80
2023-08-23T23:32:51.359Z,31.80
2023-08-23T23:37:54.352Z,31.80
2023-08-23T23:42:58.558Z,31.80
2023-08-23T23:48:02.367Z,31.80
2023-08-23T23:53:05.461Z,31.80
2023-08-23T23:58:09.668Z,31.80
